CPA33 LTFM-UKOO
Flight info
| Callsign | CPA33 |
|---|---|
| Flight time | 0h 53m |
| Altitude | 36000 |
| Route | MAKOL N617 BINBI/N0477F350 DCT OSDOR N617 AMNEZ |
| Aircraft | A35K/H-SDE2E3GHIJ3J4J5LM1ORWXY/LB1D1 |
Departure
| Time | 2026-04-18 07:41 |
|---|---|
| Airport | İstanbul Airport (LTFM) |
Arrival
| Time | 2026-04-18 08:34 |
|---|---|
| Airport | Odesa International Airport (UKOO) |
| Time | Latitude | Longitude | Altitude | Speed | Heading |
|---|---|---|---|---|---|
| 2026-04-18 07:07 | 41.26070 | 28.73589 | 340 ft | 0 kts | 110° |
| 2026-04-18 07:28 | 41.26073 | 28.73580 | 334 ft | 5 kts | 110° |
| 2026-04-18 07:29 | 41.26086 | 28.73533 | 334 ft | 5 kts | 110° |
| 2026-04-18 07:29 | 41.26088 | 28.73486 | 334 ft | 5 kts | 40° |
| 2026-04-18 07:29 | 41.26080 | 28.73478 | 334 ft | 0 kts | 26° |
| 2026-04-18 07:37 | 41.26103 | 28.73492 | 330 ft | 8 kts | 23° |
| 2026-04-18 07:37 | 41.26164 | 28.73511 | 337 ft | 10 kts | 1° |
| 2026-04-18 07:37 | 41.26211 | 28.73451 | 334 ft | 11 kts | 287° |
| 2026-04-18 07:37 | 41.26217 | 28.73335 | 337 ft | 14 kts | 269° |
| 2026-04-18 07:38 | 41.26216 | 28.73190 | 337 ft | 17 kts | 269° |
| 2026-04-18 07:38 | 41.26215 | 28.73036 | 337 ft | 9 kts | 269° |
| 2026-04-18 07:38 | 41.26215 | 28.73013 | 338 ft | 0 kts | 269° |
| 2026-04-18 07:38 | 41.26215 | 28.72995 | 338 ft | 5 kts | 269° |
| 2026-04-18 07:39 | 41.26214 | 28.72928 | 334 ft | 9 kts | 269° |
| 2026-04-18 07:39 | 41.26213 | 28.72827 | 337 ft | 13 kts | 269° |
| 2026-04-18 07:39 | 41.26212 | 28.72696 | 340 ft | 16 kts | 269° |
| 2026-04-18 07:39 | 41.26215 | 28.72583 | 339 ft | 11 kts | 284° |
| 2026-04-18 07:40 | 41.26269 | 28.72525 | 337 ft | 11 kts | 352° |
| 2026-04-18 07:40 | 41.26288 | 28.72523 | 335 ft | 1 kts | 357° |
| 2026-04-18 07:40 | 41.26401 | 28.72518 | 335 ft | 48 kts | 359° |
| 2026-04-18 07:40 | 41.26994 | 28.72506 | 335 ft | 119 kts | 359° |
| 2026-04-18 07:41 | 41.27965 | 28.72482 | 731 ft | 146 kts | 1° |
| 2026-04-18 07:41 | 41.28988 | 28.72468 | 1559 ft | 148 kts | 3° |
| 2026-04-18 07:41 | 41.30098 | 28.72460 | 1934 ft | 172 kts | 4° |
| 2026-04-18 07:41 | 41.31370 | 28.72460 | 2314 ft | 192 kts | 4° |
| 2026-04-18 07:42 | 41.32743 | 28.72452 | 2855 ft | 204 kts | 5° |
| 2026-04-18 07:42 | 41.34209 | 28.72463 | 3435 ft | 216 kts | 5° |
| 2026-04-18 07:42 | 41.35748 | 28.72517 | 4063 ft | 226 kts | 6° |
| 2026-04-18 07:42 | 41.37322 | 28.72616 | 4724 ft | 233 kts | 6° |
| 2026-04-18 07:43 | 41.38988 | 28.72770 | 5409 ft | 240 kts | 7° |
| 2026-04-18 07:43 | 41.40653 | 28.73117 | 6103 ft | 244 kts | 16° |
| 2026-04-18 07:43 | 41.42261 | 28.73876 | 6833 ft | 246 kts | 25° |
| 2026-04-18 07:43 | 41.43812 | 28.74857 | 7581 ft | 250 kts | 26° |
| 2026-04-18 07:44 | 41.45402 | 28.75878 | 8212 ft | 257 kts | 26° |
| 2026-04-18 07:44 | 41.47010 | 28.76891 | 8958 ft | 260 kts | 25° |
| 2026-04-18 07:44 | 41.48664 | 28.77920 | 9747 ft | 263 kts | 25° |
| 2026-04-18 07:44 | 41.50340 | 28.78956 | 10353 ft | 272 kts | 25° |
| 2026-04-18 07:45 | 41.52138 | 28.80063 | 10664 ft | 290 kts | 24° |
| 2026-04-18 07:45 | 41.53996 | 28.81206 | 10959 ft | 306 kts | 24° |
| 2026-04-18 07:45 | 41.55974 | 28.82420 | 11297 ft | 320 kts | 24° |
| 2026-04-18 07:45 | 41.58026 | 28.83681 | 11781 ft | 327 kts | 24° |
| 2026-04-18 07:46 | 41.60110 | 28.84963 | 12432 ft | 330 kts | 24° |
| 2026-04-18 07:46 | 41.62210 | 28.86256 | 13041 ft | 335 kts | 24° |
| 2026-04-18 07:46 | 41.64342 | 28.87568 | 13590 ft | 340 kts | 23° |
| 2026-04-18 07:46 | 41.66497 | 28.88896 | 13877 ft | 341 kts | 23° |
| 2026-04-18 07:47 | 41.68660 | 28.90229 | 13997 ft | 344 kts | 23° |
| 2026-04-18 07:47 | 41.70849 | 28.91579 | 14465 ft | 348 kts | 23° |
| 2026-04-18 07:47 | 41.73062 | 28.92919 | 15060 ft | 349 kts | 21° |
| 2026-04-18 07:47 | 41.75347 | 28.94097 | 15586 ft | 354 kts | 18° |
| 2026-04-18 07:48 | 41.77686 | 28.95222 | 16019 ft | 360 kts | 18° |
| 2026-04-18 07:48 | 41.80052 | 28.96356 | 16622 ft | 362 kts | 18° |
| 2026-04-18 07:48 | 41.82443 | 28.97503 | 17074 ft | 368 kts | 18° |
| 2026-04-18 07:48 | 41.84880 | 28.98673 | 17479 ft | 375 kts | 17° |
| 2026-04-18 07:49 | 41.87345 | 28.99864 | 18025 ft | 378 kts | 17° |
| 2026-04-18 07:49 | 41.89835 | 29.01064 | 18425 ft | 384 kts | 18° |
| 2026-04-18 07:49 | 41.92364 | 29.02286 | 18807 ft | 389 kts | 18° |
| 2026-04-18 07:49 | 41.94928 | 29.03526 | 19189 ft | 395 kts | 17° |
| 2026-04-18 07:50 | 41.97528 | 29.04782 | 19558 ft | 400 kts | 18° |
| 2026-04-18 07:50 | 42.00159 | 29.06056 | 19982 ft | 404 kts | 18° |
| 2026-04-18 07:50 | 42.02813 | 29.07345 | 20350 ft | 409 kts | 18° |
| 2026-04-18 07:50 | 42.05497 | 29.08646 | 20814 ft | 411 kts | 18° |
| 2026-04-18 07:51 | 42.08198 | 29.09959 | 21244 ft | 414 kts | 18° |
| 2026-04-18 07:51 | 42.10894 | 29.11269 | 21598 ft | 419 kts | 18° |
| 2026-04-18 07:51 | 42.13646 | 29.12608 | 22044 ft | 422 kts | 18° |
| 2026-04-18 07:51 | 42.16464 | 29.13944 | 22423 ft | 426 kts | 15° |
| 2026-04-18 07:52 | 42.19322 | 29.15039 | 22803 ft | 428 kts | 12° |
| 2026-04-18 07:52 | 42.22220 | 29.16001 | 23235 ft | 430 kts | 11° |
| 2026-04-18 07:52 | 42.25110 | 29.16891 | 23570 ft | 434 kts | 11° |
| 2026-04-18 07:52 | 42.28105 | 29.17787 | 23888 ft | 437 kts | 10° |
| 2026-04-18 07:53 | 42.31085 | 29.18679 | 24227 ft | 439 kts | 11° |
| 2026-04-18 07:53 | 42.34029 | 29.19571 | 24544 ft | 442 kts | 11° |
| 2026-04-18 07:53 | 42.37034 | 29.20493 | 24865 ft | 444 kts | 11° |
| 2026-04-18 07:53 | 42.40055 | 29.21430 | 25173 ft | 447 kts | 11° |
| 2026-04-18 07:54 | 42.43095 | 29.22379 | 25497 ft | 449 kts | 11° |
| 2026-04-18 07:54 | 42.46149 | 29.23336 | 25833 ft | 452 kts | 11° |
| 2026-04-18 07:54 | 42.49221 | 29.24301 | 26174 ft | 455 kts | 11° |
| 2026-04-18 07:54 | 42.52326 | 29.25276 | 26443 ft | 460 kts | 11° |
| 2026-04-18 07:55 | 42.55457 | 29.26260 | 26774 ft | 463 kts | 11° |
| 2026-04-18 07:55 | 42.58604 | 29.27250 | 27153 ft | 466 kts | 11° |
| 2026-04-18 07:55 | 42.61773 | 29.28247 | 27528 ft | 469 kts | 11° |
| 2026-04-18 07:55 | 42.64969 | 29.29254 | 27909 ft | 472 kts | 11° |
| 2026-04-18 07:56 | 42.68178 | 29.30266 | 28264 ft | 476 kts | 11° |
| 2026-04-18 07:56 | 42.71424 | 29.31290 | 28645 ft | 480 kts | 11° |
| 2026-04-18 07:56 | 42.74689 | 29.32322 | 29041 ft | 483 kts | 11° |
| 2026-04-18 07:56 | 42.77970 | 29.33360 | 29436 ft | 486 kts | 11° |
| 2026-04-18 07:57 | 42.81278 | 29.34408 | 29839 ft | 490 kts | 11° |
| 2026-04-18 07:57 | 42.84612 | 29.35465 | 30205 ft | 493 kts | 11° |
| 2026-04-18 07:57 | 42.87961 | 29.36528 | 30592 ft | 495 kts | 11° |
| 2026-04-18 07:57 | 42.91322 | 29.37597 | 31003 ft | 497 kts | 11° |
| 2026-04-18 07:58 | 42.98083 | 29.39750 | 31785 ft | 501 kts | 11° |
| 2026-04-18 07:58 | 43.01478 | 29.40832 | 31935 ft | 502 kts | 11° |
| 2026-04-18 07:59 | 43.08296 | 29.43009 | 31939 ft | 504 kts | 11° |
| 2026-04-18 07:59 | 43.15131 | 29.45197 | 31944 ft | 505 kts | 11° |
| 2026-04-18 08:00 | 43.21968 | 29.47392 | 31953 ft | 505 kts | 11° |
| 2026-04-18 08:00 | 43.28820 | 29.49596 | 31953 ft | 506 kts | 11° |
| 2026-04-18 08:01 | 43.35677 | 29.51806 | 31939 ft | 506 kts | 11° |
| 2026-04-18 08:01 | 43.42537 | 29.54023 | 31958 ft | 506 kts | 11° |
| 2026-04-18 08:02 | 43.49402 | 29.56246 | 31953 ft | 507 kts | 11° |
| 2026-04-18 08:02 | 43.56279 | 29.58479 | 31949 ft | 509 kts | 10° |
| 2026-04-18 08:03 | 43.63182 | 29.60725 | 31951 ft | 510 kts | 10° |
| 2026-04-18 08:03 | 43.70099 | 29.62980 | 31949 ft | 511 kts | 10° |
| 2026-04-18 08:04 | 43.77020 | 29.65239 | 31955 ft | 511 kts | 10° |
| 2026-04-18 08:04 | 43.83952 | 29.67473 | 31953 ft | 512 kts | 10° |
| 2026-04-18 08:05 | 43.90846 | 29.69698 | 31957 ft | 512 kts | 10° |
| 2026-04-18 08:05 | 43.97786 | 29.71948 | 31955 ft | 512 kts | 10° |
| 2026-04-18 08:06 | 44.04740 | 29.74212 | 31956 ft | 513 kts | 10° |
| 2026-04-18 08:06 | 44.11679 | 29.76477 | 31963 ft | 513 kts | 10° |
| 2026-04-18 08:07 | 44.18651 | 29.78758 | 31967 ft | 514 kts | 10° |
| 2026-04-18 08:07 | 44.25619 | 29.81043 | 31955 ft | 515 kts | 10° |
| 2026-04-18 08:08 | 44.32592 | 29.83335 | 31960 ft | 515 kts | 10° |
| 2026-04-18 08:08 | 44.39572 | 29.85635 | 31958 ft | 516 kts | 10° |
| 2026-04-18 08:09 | 44.46562 | 29.87944 | 31962 ft | 517 kts | 10° |
| 2026-04-18 08:09 | 44.53554 | 29.90260 | 31962 ft | 517 kts | 10° |
| 2026-04-18 08:10 | 44.60541 | 29.92580 | 31967 ft | 516 kts | 10° |
| 2026-04-18 08:10 | 44.66339 | 29.94510 | 31549 ft | 513 kts | 10° |
| 2026-04-18 08:10 | 44.69817 | 29.95669 | 30709 ft | 516 kts | 10° |
| 2026-04-18 08:11 | 44.73316 | 29.96834 | 29894 ft | 517 kts | 10° |
| 2026-04-18 08:11 | 44.76814 | 29.98002 | 29132 ft | 515 kts | 10° |
| 2026-04-18 08:11 | 44.81401 | 29.99540 | 28319 ft | 507 kts | 10° |
| 2026-04-18 08:11 | 44.84817 | 30.00687 | 27747 ft | 502 kts | 10° |
| 2026-04-18 08:12 | 44.87097 | 30.01453 | 27368 ft | 498 kts | 10° |
| 2026-04-18 08:12 | 44.90457 | 30.02583 | 26810 ft | 492 kts | 10° |
| 2026-04-18 08:12 | 44.93768 | 30.03697 | 26253 ft | 487 kts | 11° |
| 2026-04-18 08:12 | 44.97032 | 30.04840 | 25707 ft | 483 kts | 14° |
| 2026-04-18 08:13 | 45.00231 | 30.06293 | 25111 ft | 480 kts | 16° |
| 2026-04-18 08:13 | 45.03367 | 30.07824 | 24594 ft | 475 kts | 17° |
| 2026-04-18 08:13 | 45.06459 | 30.09385 | 24078 ft | 469 kts | 17° |
| 2026-04-18 08:13 | 45.09515 | 30.10949 | 23582 ft | 464 kts | 18° |
| 2026-04-18 08:14 | 45.12537 | 30.12501 | 22995 ft | 459 kts | 17° |
| 2026-04-18 08:14 | 45.15518 | 30.14028 | 22367 ft | 453 kts | 17° |
| 2026-04-18 08:14 | 45.18469 | 30.15536 | 21719 ft | 450 kts | 17° |
| 2026-04-18 08:14 | 45.21395 | 30.17027 | 21108 ft | 445 kts | 17° |
| 2026-04-18 08:15 | 45.24261 | 30.18487 | 20547 ft | 439 kts | 17° |
| 2026-04-18 08:15 | 45.27120 | 30.19944 | 19993 ft | 434 kts | 17° |
| 2026-04-18 08:15 | 45.29983 | 30.21404 | 19415 ft | 429 kts | 17° |
| 2026-04-18 08:15 | 45.32740 | 30.22811 | 18870 ft | 425 kts | 17° |
| 2026-04-18 08:16 | 45.35505 | 30.24224 | 18331 ft | 420 kts | 17° |
| 2026-04-18 08:16 | 45.38249 | 30.25625 | 17644 ft | 417 kts | 18° |
| 2026-04-18 08:16 | 45.40961 | 30.27013 | 17065 ft | 411 kts | 18° |
| 2026-04-18 08:16 | 45.43620 | 30.28377 | 16509 ft | 405 kts | 18° |
| 2026-04-18 08:17 | 45.46256 | 30.29732 | 15938 ft | 399 kts | 18° |
| 2026-04-18 08:17 | 45.48852 | 30.31067 | 15378 ft | 393 kts | 18° |
| 2026-04-18 08:17 | 45.51400 | 30.32379 | 14824 ft | 388 kts | 17° |
| 2026-04-18 08:17 | 45.53930 | 30.33682 | 14264 ft | 383 kts | 17° |
| 2026-04-18 08:18 | 45.56412 | 30.34960 | 13722 ft | 378 kts | 18° |
| 2026-04-18 08:18 | 45.58872 | 30.36227 | 13086 ft | 373 kts | 17° |
| 2026-04-18 08:18 | 45.61290 | 30.37475 | 12507 ft | 367 kts | 18° |
| 2026-04-18 08:18 | 45.63648 | 30.38695 | 11552 ft | 354 kts | 17° |
| 2026-04-18 08:19 | 45.65942 | 30.39881 | 10448 ft | 347 kts | 17° |
| 2026-04-18 08:19 | 45.68178 | 30.41038 | 9468 ft | 336 kts | 18° |
| 2026-04-18 08:19 | 45.70300 | 30.42137 | 8918 ft | 312 kts | 18° |
| 2026-04-18 08:19 | 45.72270 | 30.43162 | 8451 ft | 291 kts | 18° |
| 2026-04-18 08:20 | 45.74122 | 30.44126 | 7844 ft | 278 kts | 18° |
| 2026-04-18 08:20 | 45.75920 | 30.45058 | 7127 ft | 271 kts | 18° |
| 2026-04-18 08:20 | 45.77683 | 30.45970 | 6466 ft | 267 kts | 18° |
| 2026-04-18 08:20 | 45.79414 | 30.46853 | 5758 ft | 261 kts | 17° |
| 2026-04-18 08:21 | 45.81094 | 30.47689 | 5231 ft | 249 kts | 17° |
| 2026-04-18 08:21 | 45.82725 | 30.48498 | 4711 ft | 249 kts | 17° |
| 2026-04-18 08:21 | 45.84317 | 30.49434 | 4272 ft | 248 kts | 26° |
| 2026-04-18 08:21 | 45.85770 | 30.50745 | 3934 ft | 243 kts | 32° |
| 2026-04-18 08:22 | 45.87127 | 30.52106 | 3751 ft | 233 kts | 32° |
| 2026-04-18 08:22 | 45.88417 | 30.53430 | 3527 ft | 224 kts | 33° |
| 2026-04-18 08:22 | 45.89664 | 30.54725 | 3257 ft | 219 kts | 33° |
| 2026-04-18 08:22 | 45.90870 | 30.55985 | 3114 ft | 211 kts | 33° |
| 2026-04-18 08:23 | 45.92059 | 30.57228 | 2979 ft | 211 kts | 33° |
| 2026-04-18 08:23 | 45.93244 | 30.58472 | 2849 ft | 211 kts | 33° |
| 2026-04-18 08:23 | 45.94433 | 30.59721 | 2735 ft | 212 kts | 33° |
| 2026-04-18 08:23 | 45.95619 | 30.60972 | 2584 ft | 211 kts | 33° |
| 2026-04-18 08:24 | 45.96791 | 30.62208 | 2469 ft | 212 kts | 33° |
| 2026-04-18 08:24 | 45.97994 | 30.63478 | 2338 ft | 212 kts | 33° |
| 2026-04-18 08:24 | 45.99161 | 30.64710 | 2204 ft | 211 kts | 33° |
| 2026-04-18 08:24 | 46.00338 | 30.65954 | 2084 ft | 210 kts | 33° |
| 2026-04-18 08:25 | 46.01516 | 30.67199 | 2001 ft | 210 kts | 33° |
| 2026-04-18 08:25 | 46.02693 | 30.68445 | 1997 ft | 210 kts | 33° |
| 2026-04-18 08:25 | 46.03868 | 30.69689 | 1995 ft | 209 kts | 33° |
| 2026-04-18 08:25 | 46.05036 | 30.70925 | 2000 ft | 209 kts | 33° |
| 2026-04-18 08:26 | 46.06207 | 30.72165 | 1998 ft | 208 kts | 33° |
| 2026-04-18 08:26 | 46.07370 | 30.73401 | 1993 ft | 209 kts | 33° |
| 2026-04-18 08:26 | 46.08545 | 30.74647 | 1995 ft | 210 kts | 33° |
| 2026-04-18 08:26 | 46.09722 | 30.75896 | 1995 ft | 211 kts | 33° |
| 2026-04-18 08:27 | 46.10904 | 30.77150 | 1995 ft | 211 kts | 33° |
| 2026-04-18 08:27 | 46.12085 | 30.78398 | 1996 ft | 210 kts | 32° |
| 2026-04-18 08:27 | 46.13402 | 30.79332 | 1993 ft | 208 kts | 12° |
| 2026-04-18 08:27 | 46.14809 | 30.79346 | 1997 ft | 207 kts | 348° |
| 2026-04-18 08:28 | 46.16204 | 30.78794 | 1989 ft | 207 kts | 343° |
| 2026-04-18 08:28 | 46.17548 | 30.78186 | 2000 ft | 199 kts | 343° |
| 2026-04-18 08:28 | 46.18850 | 30.77601 | 2000 ft | 190 kts | 344° |
| 2026-04-18 08:28 | 46.20094 | 30.77053 | 2008 ft | 185 kts | 344° |
| 2026-04-18 08:29 | 46.21349 | 30.76506 | 1998 ft | 186 kts | 344° |
| 2026-04-18 08:29 | 46.22573 | 30.75964 | 1993 ft | 180 kts | 343° |
| 2026-04-18 08:29 | 46.23744 | 30.75455 | 1996 ft | 177 kts | 344° |
| 2026-04-18 08:29 | 46.24920 | 30.74952 | 1998 ft | 176 kts | 345° |
| 2026-04-18 08:30 | 46.26092 | 30.74449 | 1998 ft | 176 kts | 345° |
| 2026-04-18 08:30 | 46.27266 | 30.73945 | 1990 ft | 169 kts | 345° |
| 2026-04-18 08:30 | 46.28380 | 30.73467 | 1993 ft | 167 kts | 345° |
| 2026-04-18 08:30 | 46.29498 | 30.72986 | 1997 ft | 168 kts | 345° |
| 2026-04-18 08:31 | 46.30609 | 30.72507 | 1989 ft | 159 kts | 345° |
| 2026-04-18 08:31 | 46.31602 | 30.72079 | 1983 ft | 139 kts | 345° |
| 2026-04-18 08:31 | 46.32476 | 30.71702 | 1984 ft | 126 kts | 345° |
| 2026-04-18 08:31 | 46.33319 | 30.71340 | 1874 ft | 127 kts | 345° |
| 2026-04-18 08:32 | 46.34155 | 30.70980 | 1702 ft | 127 kts | 345° |
| 2026-04-18 08:32 | 46.35000 | 30.70632 | 1503 ft | 126 kts | 346° |
| 2026-04-18 08:32 | 46.35839 | 30.70279 | 1343 ft | 126 kts | 343° |
| 2026-04-18 08:32 | 46.36681 | 30.69909 | 1129 ft | 125 kts | 344° |
| 2026-04-18 08:33 | 46.37497 | 30.69574 | 1002 ft | 119 kts | 345° |
| 2026-04-18 08:33 | 46.38314 | 30.69311 | 823 ft | 123 kts | 351° |
| 2026-04-18 08:33 | 46.39153 | 30.69058 | 677 ft | 124 kts | 347° |
| 2026-04-18 08:33 | 46.39994 | 30.68766 | 536 ft | 126 kts | 347° |
| 2026-04-18 08:34 | 46.40844 | 30.68435 | 356 ft | 126 kts | 345° |
| 2026-04-18 08:34 | 46.41672 | 30.68070 | 210 ft | 123 kts | 345° |
| 2026-04-18 08:34 | 46.42427 | 30.67753 | 178 ft | 94 kts | 344° |
| 2026-04-18 08:34 | 46.42775 | 30.67605 | 182 ft | 9 kts | 346° |
| 2026-04-18 08:35 | 46.42845 | 30.67575 | 181 ft | 18 kts | 343° |
| 2026-04-18 08:35 | 46.42975 | 30.67520 | 181 ft | 19 kts | 343° |
| 2026-04-18 08:35 | 46.43102 | 30.67465 | 181 ft | 20 kts | 345° |
| 2026-04-18 08:35 | 46.43255 | 30.67397 | 182 ft | 24 kts | 346° |
| 2026-04-18 08:36 | 46.43353 | 30.67393 | 182 ft | 10 kts | 43° |
| 2026-04-18 08:36 | 46.43397 | 30.67541 | 181 ft | 20 kts | 72° |
| 2026-04-18 08:36 | 46.43439 | 30.67745 | 181 ft | 23 kts | 74° |
| 2026-04-18 08:36 | 46.43446 | 30.67901 | 181 ft | 12 kts | 124° |
| 2026-04-18 08:37 | 46.43430 | 30.67976 | 181 ft | 0 kts | 56° |
| 2026-04-18 08:41 | 46.38515 | 30.69256 | 803 ft | 121 kts | 348° |
| 2026-04-18 08:42 | 46.39026 | 30.69099 | 720 ft | 124 kts | 347° |
| 2026-04-18 08:44 | 46.39334 | 30.69000 | 648 ft | 123 kts | 347° |
| 2026-04-18 08:44 | 46.40178 | 30.68692 | 490 ft | 127 kts | 346° |
| 2026-04-18 08:44 | 46.40262 | 30.68661 | 468 ft | 121 kts | 346° |
| 2026-04-18 08:46 | 46.40317 | 30.68641 | 458 ft | 127 kts | 346° |
| 2026-04-18 08:46 | 46.41161 | 30.68294 | 272 ft | 125 kts | 343° |
| 2026-04-18 08:46 | 46.41977 | 30.67938 | 181 ft | 118 kts | 345° |
| 2026-04-18 08:46 | 46.41301 | 30.68233 | 246 ft | 124 kts | 344° |
| 2026-04-18 08:47 | 46.42131 | 30.67877 | 178 ft | 113 kts | 345° |
| 2026-04-18 08:47 | 46.42697 | 30.67639 | 181 ft | 45 kts | 342° |
| 2026-04-18 08:47 | 46.40988 | 30.68371 | 312 ft | 124 kts | 343° |
| 2026-04-18 08:47 | 46.41842 | 30.67996 | 183 ft | 121 kts | 344° |
| 2026-04-18 08:48 | 46.42546 | 30.67704 | 182 ft | 78 kts | 344° |